sensor_id;sensor_type;location;lat;lon;timestamp;temperature;humidity
72338;DHT22;60294;64.134;-21.862;2022-07-05T00:00:38;10.60;68.80
72338;DHT22;60294;64.134;-21.862;2022-07-05T00:03:06;10.60;69.10
72338;DHT22;60294;64.134;-21.862;2022-07-05T00:05:32;10.50;68.70
72338;DHT22;60294;64.134;-21.862;2022-07-05T00:07:57;10.60;69.00
72338;DHT22;60294;64.134;-21.862;2022-07-05T00:10:23;10.60;69.00
72338;DHT22;60294;64.134;-21.862;2022-07-05T00:12:49;10.60;69.30
72338;DHT22;60294;64.134;-21.862;2022-07-05T00:15:15;10.70;68.60
72338;DHT22;60294;64.134;-21.862;2022-07-05T00:17:41;10.70;68.80
72338;DHT22;60294;64.134;-21.862;2022-07-05T00:20:07;10.70;68.80
72338;DHT22;60294;64.134;-21.862;2022-07-05T00:22:33;10.80;68.70
72338;DHT22;60294;64.134;-21.862;2022-07-05T00:24:58;10.90;68.30
72338;DHT22;60294;64.134;-21.862;2022-07-05T00:27:24;10.90;68.40
72338;DHT22;60294;64.134;-21.862;2022-07-05T00:29:50;11.00;68.20
72338;DHT22;60294;64.134;-21.862;2022-07-05T00:32:16;11.10;68.50
72338;DHT22;60294;64.134;-21.862;2022-07-05T00:34:42;11.10;68.20
72338;DHT22;60294;64.134;-21.862;2022-07-05T00:37:08;11.10;68.30
72338;DHT22;60294;64.134;-21.862;2022-07-05T00:39:33;11.10;67.80
72338;DHT22;60294;64.134;-21.862;2022-07-05T00:42:00;11.00;68.00
72338;DHT22;60294;64.134;-21.862;2022-07-05T00:44:32;10.80;68.30
72338;DHT22;60294;64.134;-21.862;2022-07-05T00:47:04;10.80;68.90
72338;DHT22;60294;64.134;-21.862;2022-07-05T00:49:31;10.90;68.90
72338;DHT22;60294;64.134;-21.862;2022-07-05T00:51:58;10.90;68.40
72338;DHT22;60294;64.134;-21.862;2022-07-05T00:54:25;11.00;68.50
72338;DHT22;60294;64.134;-21.862;2022-07-05T00:56:52;11.10;68.30
72338;DHT22;60294;64.134;-21.862;2022-07-05T00:59:18;11.00;68.80
72338;DHT22;60294;64.134;-21.862;2022-07-05T01:01:44;11.10;68.00
72338;DHT22;60294;64.134;-21.862;2022-07-05T01:04:11;11.10;68.30
72338;DHT22;60294;64.134;-21.862;2022-07-05T01:06:42;11.10;68.00
72338;DHT22;60294;64.134;-21.862;2022-07-05T01:09:11;10.90;68.60
72338;DHT22;60294;64.134;-21.862;2022-07-05T01:11:39;11.00;68.30
72338;DHT22;60294;64.134;-21.862;2022-07-05T01:14:06;10.80;69.00
72338;DHT22;60294;64.134;-21.862;2022-07-05T01:16:38;11.00;69.20
72338;DHT22;60294;64.134;-21.862;2022-07-05T01:19:08;11.00;69.00
72338;DHT22;60294;64.134;-21.862;2022-07-05T01:21:42;11.00;69.10
72338;DHT22;60294;64.134;-21.862;2022-07-05T01:24:13;11.00;68.90
72338;DHT22;60294;64.134;-21.862;2022-07-05T01:26:40;10.90;69.20
72338;DHT22;60294;64.134;-21.862;2022-07-05T01:29:08;10.80;69.10
72338;DHT22;60294;64.134;-21.862;2022-07-05T01:31:40;10.80;68.90
72338;DHT22;60294;64.134;-21.862;2022-07-05T01:34:07;10.80;69.10
72338;DHT22;60294;64.134;-21.862;2022-07-05T01:36:34;10.70;69.70
72338;DHT22;60294;64.134;-21.862;2022-07-05T01:39:02;10.60;70.10
72338;DHT22;60294;64.134;-21.862;2022-07-05T01:41:28;10.60;69.70
72338;DHT22;60294;64.134;-21.862;2022-07-05T01:43:54;10.60;69.50
72338;DHT22;60294;64.134;-21.862;2022-07-05T01:46:22;10.70;69.90
72338;DHT22;60294;64.134;-21.862;2022-07-05T01:48:53;10.70;69.60
72338;DHT22;60294;64.134;-21.862;2022-07-05T01:51:34;10.80;69.50
72338;DHT22;60294;64.134;-21.862;2022-07-05T01:54:03;10.70;69.30
72338;DHT22;60294;64.134;-21.862;2022-07-05T01:56:30;10.70;69.70
72338;DHT22;60294;64.134;-21.862;2022-07-05T01:58:57;10.70;69.80
72338;DHT22;60294;64.134;-21.862;2022-07-05T02:01:37;10.60;69.60
72338;DHT22;60294;64.134;-21.862;2022-07-05T02:04:05;10.60;69.50
72338;DHT22;60294;64.134;-21.862;2022-07-05T02:06:32;10.60;69.50
72338;DHT22;60294;64.134;-21.862;2022-07-05T02:08:59;10.60;69.60
72338;DHT22;60294;64.134;-21.862;2022-07-05T02:11:26;10.60;69.50
72338;DHT22;60294;64.134;-21.862;2022-07-05T02:13:52;10.70;69.60
72338;DHT22;60294;64.134;-21.862;2022-07-05T02:16:17;10.70;69.20
72338;DHT22;60294;64.134;-21.862;2022-07-05T02:18:47;10.80;69.30
72338;DHT22;60294;64.134;-21.862;2022-07-05T02:21:12;10.80;69.50
72338;DHT22;60294;64.134;-21.862;2022-07-05T02:23:39;10.80;69.40
72338;DHT22;60294;64.134;-21.862;2022-07-05T02:26:05;10.80;69.60
72338;DHT22;60294;64.134;-21.862;2022-07-05T02:28:30;10.80;69.10
72338;DHT22;60294;64.134;-21.862;2022-07-05T02:30:56;10.90;69.30
72338;DHT22;60294;64.134;-21.862;2022-07-05T02:33:22;10.90;69.40
72338;DHT22;60294;64.134;-21.862;2022-07-05T02:35:48;10.90;69.90
72338;DHT22;60294;64.134;-21.862;2022-07-05T02:38:14;10.90;70.00
72338;DHT22;60294;64.134;-21.862;2022-07-05T02:40:39;10.90;69.80
72338;DHT22;60294;64.134;-21.862;2022-07-05T02:43:05;11.00;69.30
72338;DHT22;60294;64.134;-21.862;2022-07-05T02:45:31;11.00;69.20
72338;DHT22;60294;64.134;-21.862;2022-07-05T02:47:57;11.00;69.10
72338;DHT22;60294;64.134;-21.862;2022-07-05T02:50:23;11.10;69.20
72338;DHT22;60294;64.134;-21.862;2022-07-05T02:52:49;11.00;69.40
72338;DHT22;60294;64.134;-21.862;2022-07-05T02:55:15;11.10;69.00
72338;DHT22;60294;64.134;-21.862;2022-07-05T02:57:41;11.10;69.00
72338;DHT22;60294;64.134;-21.862;2022-07-05T03:00:07;11.10;69.00
72338;DHT22;60294;64.134;-21.862;2022-07-05T03:02:33;11.10;69.00
72338;DHT22;60294;64.134;-21.862;2022-07-05T03:04:59;11.10;69.30
72338;DHT22;60294;64.134;-21.862;2022-07-05T03:07:25;11.00;69.00
72338;DHT22;60294;64.134;-21.862;2022-07-05T03:09:50;11.00;69.10
72338;DHT22;60294;64.134;-21.862;2022-07-05T03:12:16;11.00;68.70
72338;DHT22;60294;64.134;-21.862;2022-07-05T03:14:42;11.10;68.60
72338;DHT22;60294;64.134;-21.862;2022-07-05T03:17:08;11.10;68.30
72338;DHT22;60294;64.134;-21.862;2022-07-05T03:19:34;11.10;68.30
72338;DHT22;60294;64.134;-21.862;2022-07-05T03:22:00;11.10;68.30
72338;DHT22;60294;64.134;-21.862;2022-07-05T03:24:25;11.10;68.50
72338;DHT22;60294;64.134;-21.862;2022-07-05T03:26:51;11.10;68.40
72338;DHT22;60294;64.134;-21.862;2022-07-05T03:29:17;11.10;68.10
72338;DHT22;60294;64.134;-21.862;2022-07-05T03:31:43;11.10;67.90
72338;DHT22;60294;64.134;-21.862;2022-07-05T03:34:09;11.10;67.70
72338;DHT22;60294;64.134;-21.862;2022-07-05T03:36:35;11.10;68.00
72338;DHT22;60294;64.134;-21.862;2022-07-05T03:39:00;11.10;67.90
72338;DHT22;60294;64.134;-21.862;2022-07-05T03:41:26;11.20;68.00
72338;DHT22;60294;64.134;-21.862;2022-07-05T03:43:52;11.20;67.90
72338;DHT22;60294;64.134;-21.862;2022-07-05T03:46:18;11.20;68.00
72338;DHT22;60294;64.134;-21.862;2022-07-05T03:48:43;11.20;68.10
72338;DHT22;60294;64.134;-21.862;2022-07-05T03:51:09;11.10;68.30
72338;DHT22;60294;64.134;-21.862;2022-07-05T03:53:35;11.10;68.60
72338;DHT22;60294;64.134;-21.862;2022-07-05T03:56:01;11.10;68.70
72338;DHT22;60294;64.134;-21.862;2022-07-05T03:58:27;11.10;68.50
72338;DHT22;60294;64.134;-21.862;2022-07-05T04:00:52;11.10;68.60
72338;DHT22;60294;64.134;-21.862;2022-07-05T04:03:18;11.10;68.70
72338;DHT22;60294;64.134;-21.862;2022-07-05T04:05:44;11.10;69.00
72338;DHT22;60294;64.134;-21.862;2022-07-05T04:08:10;11.10;68.80
72338;DHT22;60294;64.134;-21.862;2022-07-05T04:10:35;11.10;69.10
72338;DHT22;60294;64.134;-21.862;2022-07-05T04:13:01;11.00;69.20
72338;DHT22;60294;64.134;-21.862;2022-07-05T04:15:27;10.90;69.30
72338;DHT22;60294;64.134;-21.862;2022-07-05T04:17:54;10.90;69.60
72338;DHT22;60294;64.134;-21.862;2022-07-05T04:20:21;11.00;69.40
72338;DHT22;60294;64.134;-21.862;2022-07-05T04:22:48;11.00;69.40
72338;DHT22;60294;64.134;-21.862;2022-07-05T04:25:14;10.70;70.30
72338;DHT22;60294;64.134;-21.862;2022-07-05T04:27:51;10.90;70.40
72338;DHT22;60294;64.134;-21.862;2022-07-05T04:30:18;10.90;70.30
72338;DHT22;60294;64.134;-21.862;2022-07-05T04:32:44;10.90;70.10
72338;DHT22;60294;64.134;-21.862;2022-07-05T04:35:11;10.90;70.00
72338;DHT22;60294;64.134;-21.862;2022-07-05T04:37:38;10.90;69.70
72338;DHT22;60294;64.134;-21.862;2022-07-05T04:40:05;10.90;69.00
72338;DHT22;60294;64.134;-21.862;2022-07-05T04:42:31;11.00;69.30
72338;DHT22;60294;64.134;-21.862;2022-07-05T04:44:57;11.00;69.50
72338;DHT22;60294;64.134;-21.862;2022-07-05T04:47:23;10.80;69.60
72338;DHT22;60294;64.134;-21.862;2022-07-05T04:49:51;10.80;70.10
72338;DHT22;60294;64.134;-21.862;2022-07-05T04:52:17;10.90;69.70
72338;DHT22;60294;64.134;-21.862;2022-07-05T04:54:43;11.00;69.60
72338;DHT22;60294;64.134;-21.862;2022-07-05T04:57:09;11.00;69.90
72338;DHT22;60294;64.134;-21.862;2022-07-05T04:59:35;11.00;69.90
72338;DHT22;60294;64.134;-21.862;2022-07-05T05:02:01;11.00;69.80
72338;DHT22;60294;64.134;-21.862;2022-07-05T05:04:26;11.00;69.70
72338;DHT22;60294;64.134;-21.862;2022-07-05T05:06:52;10.90;69.50
72338;DHT22;60294;64.134;-21.862;2022-07-05T05:09:18;11.00;69.80
72338;DHT22;60294;64.134;-21.862;2022-07-05T05:11:44;11.00;69.30
72338;DHT22;60294;64.134;-21.862;2022-07-05T05:14:10;11.00;69.70
72338;DHT22;60294;64.134;-21.862;2022-07-05T05:16:35;11.00;69.20
72338;DHT22;60294;64.134;-21.862;2022-07-05T05:19:01;11.00;68.90
72338;DHT22;60294;64.134;-21.862;2022-07-05T05:21:27;10.90;69.20
72338;DHT22;60294;64.134;-21.862;2022-07-05T05:23:53;11.00;69.40
72338;DHT22;60294;64.134;-21.862;2022-07-05T05:26:19;11.00;68.90
72338;DHT22;60294;64.134;-21.862;2022-07-05T05:28:44;11.00;68.80
72338;DHT22;60294;64.134;-21.862;2022-07-05T05:31:10;11.10;68.90
72338;DHT22;60294;64.134;-21.862;2022-07-05T05:33:36;11.00;68.80
72338;DHT22;60294;64.134;-21.862;2022-07-05T05:36:02;11.00;69.30
72338;DHT22;60294;64.134;-21.862;2022-07-05T05:38:28;11.10;69.80
72338;DHT22;60294;64.134;-21.862;2022-07-05T05:40:54;11.00;70.50
72338;DHT22;60294;64.134;-21.862;2022-07-05T05:43:20;10.80;71.00
72338;DHT22;60294;64.134;-21.862;2022-07-05T05:45:46;10.80;71.90
72338;DHT22;60294;64.134;-21.862;2022-07-05T05:48:12;10.90;71.80
72338;DHT22;60294;64.134;-21.862;2022-07-05T05:50:38;10.80;72.50
72338;DHT22;60294;64.134;-21.862;2022-07-05T05:53:04;10.80;72.80
72338;DHT22;60294;64.134;-21.862;2022-07-05T05:55:31;10.90;73.50
72338;DHT22;60294;64.134;-21.862;2022-07-05T05:58:10;10.90;73.50
72338;DHT22;60294;64.134;-21.862;2022-07-05T06:00:37;10.90;73.60
72338;DHT22;60294;64.134;-21.862;2022-07-05T06:03:02;10.80;73.60
72338;DHT22;60294;64.134;-21.862;2022-07-05T06:05:28;10.90;73.80
72338;DHT22;60294;64.134;-21.862;2022-07-05T06:07:55;10.90;73.90
72338;DHT22;60294;64.134;-21.862;2022-07-05T06:10:28;11.00;73.70
72338;DHT22;60294;64.134;-21.862;2022-07-05T06:12:56;11.00;73.30
72338;DHT22;60294;64.134;-21.862;2022-07-05T06:15:22;11.00;73.30
72338;DHT22;60294;64.134;-21.862;2022-07-05T06:17:48;11.10;73.40
72338;DHT22;60294;64.134;-21.862;2022-07-05T06:20:17;11.10;73.20
72338;DHT22;60294;64.134;-21.862;2022-07-05T06:22:43;11.10;73.40
72338;DHT22;60294;64.134;-21.862;2022-07-05T06:25:10;11.10;73.40
72338;DHT22;60294;64.134;-21.862;2022-07-05T06:27:46;11.10;73.60
72338;DHT22;60294;64.134;-21.862;2022-07-05T06:30:15;11.10;73.30
72338;DHT22;60294;64.134;-21.862;2022-07-05T06:32:43;11.20;73.20
72338;DHT22;60294;64.134;-21.862;2022-07-05T06:35:10;11.20;73.40
72338;DHT22;60294;64.134;-21.862;2022-07-05T06:37:50;11.10;73.50
72338;DHT22;60294;64.134;-21.862;2022-07-05T06:40:22;11.20;73.40
72338;DHT22;60294;64.134;-21.862;2022-07-05T06:42:50;11.30;73.70
72338;DHT22;60294;64.134;-21.862;2022-07-05T06:45:16;11.30;73.50
72338;DHT22;60294;64.134;-21.862;2022-07-05T06:47:42;11.30;73.60
72338;DHT22;60294;64.134;-21.862;2022-07-05T06:50:09;11.20;73.90
72338;DHT22;60294;64.134;-21.862;2022-07-05T06:52:36;11.30;74.10
72338;DHT22;60294;64.134;-21.862;2022-07-05T06:55:02;11.30;74.00
72338;DHT22;60294;64.134;-21.862;2022-07-05T06:57:29;11.30;74.30
72338;DHT22;60294;64.134;-21.862;2022-07-05T06:59:54;11.20;74.40
72338;DHT22;60294;64.134;-21.862;2022-07-05T07:02:21;11.20;74.30
72338;DHT22;60294;64.134;-21.862;2022-07-05T07:04:48;11.30;74.20
72338;DHT22;60294;64.134;-21.862;2022-07-05T07:07:14;11.40;74.00
72338;DHT22;60294;64.134;-21.862;2022-07-05T07:10:00;11.50;73.80
72338;DHT22;60294;64.134;-21.862;2022-07-05T07:12:26;11.60;73.70
72338;DHT22;60294;64.134;-21.862;2022-07-05T07:14:52;11.60;73.40
72338;DHT22;60294;64.134;-21.862;2022-07-05T07:17:18;11.60;73.20
72338;DHT22;60294;64.134;-21.862;2022-07-05T07:19:44;11.50;73.00
72338;DHT22;60294;64.134;-21.862;2022-07-05T07:22:10;11.50;73.40
72338;DHT22;60294;64.134;-21.862;2022-07-05T07:24:36;11.60;73.00
72338;DHT22;60294;64.134;-21.862;2022-07-05T07:27:02;11.60;73.20
72338;DHT22;60294;64.134;-21.862;2022-07-05T07:29:34;11.70;73.10
72338;DHT22;60294;64.134;-21.862;2022-07-05T07:32:00;11.60;73.00
72338;DHT22;60294;64.134;-21.862;2022-07-05T07:34:27;11.70;72.70
72338;DHT22;60294;64.134;-21.862;2022-07-05T07:36:54;11.80;72.50
72338;DHT22;60294;64.134;-21.862;2022-07-05T07:39:20;11.80;72.90
72338;DHT22;60294;64.134;-21.862;2022-07-05T07:41:46;11.80;73.00
72338;DHT22;60294;64.134;-21.862;2022-07-05T07:44:12;11.90;72.50
72338;DHT22;60294;64.134;-21.862;2022-07-05T07:46:38;11.90;72.40
72338;DHT22;60294;64.134;-21.862;2022-07-05T07:49:07;12.00;72.10
72338;DHT22;60294;64.134;-21.862;2022-07-05T07:51:34;11.90;72.20
72338;DHT22;60294;64.134;-21.862;2022-07-05T07:54:00;11.90;72.20
72338;DHT22;60294;64.134;-21.862;2022-07-05T07:56:26;12.00;72.50
72338;DHT22;60294;64.134;-21.862;2022-07-05T07:58:52;12.00;72.00
72338;DHT22;60294;64.134;-21.862;2022-07-05T08:01:18;12.00;71.70
72338;DHT22;60294;64.134;-21.862;2022-07-05T08:03:44;11.90;72.20
72338;DHT22;60294;64.134;-21.862;2022-07-05T08:06:11;12.10;72.20
72338;DHT22;60294;64.134;-21.862;2022-07-05T08:08:41;12.10;72.00
72338;DHT22;60294;64.134;-21.862;2022-07-05T08:11:09;12.10;71.80
72338;DHT22;60294;64.134;-21.862;2022-07-05T08:13:36;12.20;72.00
72338;DHT22;60294;64.134;-21.862;2022-07-05T08:16:02;12.30;71.60
72338;DHT22;60294;64.134;-21.862;2022-07-05T08:18:28;12.20;71.60
72338;DHT22;60294;64.134;-21.862;2022-07-05T08:21:12;12.20;71.60
72338;DHT22;60294;64.134;-21.862;2022-07-05T08:24:00;12.20;71.90
72338;DHT22;60294;64.134;-21.862;2022-07-05T08:26:26;12.20;71.90
72338;DHT22;60294;64.134;-21.862;2022-07-05T08:28:52;12.40;72.40
72338;DHT22;60294;64.134;-21.862;2022-07-05T08:31:19;12.30;72.10
72338;DHT22;60294;64.134;-21.862;2022-07-05T08:33:45;12.30;72.20
72338;DHT22;60294;64.134;-21.862;2022-07-05T08:36:11;12.50;72.00
72338;DHT22;60294;64.134;-21.862;2022-07-05T08:38:36;12.50;72.20
72338;DHT22;60294;64.134;-21.862;2022-07-05T08:41:03;12.60;72.00
72338;DHT22;60294;64.134;-21.862;2022-07-05T08:43:31;12.60;72.30
72338;DHT22;60294;64.134;-21.862;2022-07-05T08:45:58;12.80;71.80
72338;DHT22;60294;64.134;-21.862;2022-07-05T08:48:25;12.90;71.40
72338;DHT22;60294;64.134;-21.862;2022-07-05T08:50:54;12.90;71.30
72338;DHT22;60294;64.134;-21.862;2022-07-05T08:53:21;13.10;71.20
72338;DHT22;60294;64.134;-21.862;2022-07-05T08:55:47;13.00;71.80
72338;DHT22;60294;64.134;-21.862;2022-07-05T08:58:13;13.10;71.50
72338;DHT22;60294;64.134;-21.862;2022-07-05T09:00:40;13.00;71.50
72338;DHT22;60294;64.134;-21.862;2022-07-05T09:03:07;13.10;72.20
72338;DHT22;60294;64.134;-21.862;2022-07-05T09:05:43;13.10;71.90
72338;DHT22;60294;64.134;-21.862;2022-07-05T09:08:10;13.10;71.90
72338;DHT22;60294;64.134;-21.862;2022-07-05T09:10:40;13.30;71.60
72338;DHT22;60294;64.134;-21.862;2022-07-05T09:13:07;13.30;71.20
72338;DHT22;60294;64.134;-21.862;2022-07-05T09:15:33;13.30;71.30
72338;DHT22;60294;64.134;-21.862;2022-07-05T09:17:59;13.50;70.70
72338;DHT22;60294;64.134;-21.862;2022-07-05T09:20:27;13.50;71.00
72338;DHT22;60294;64.134;-21.862;2022-07-05T09:26:15;13.60;71.10
72338;DHT22;60294;64.134;-21.862;2022-07-05T09:28:53;13.60;70.90
72338;DHT22;60294;64.134;-21.862;2022-07-05T09:31:28;13.60;70.40
72338;DHT22;60294;64.134;-21.862;2022-07-05T09:33:54;13.60;70.50
72338;DHT22;60294;64.134;-21.862;2022-07-05T09:36:19;13.70;70.30
72338;DHT22;60294;64.134;-21.862;2022-07-05T09:38:51;13.80;70.30
72338;DHT22;60294;64.134;-21.862;2022-07-05T09:41:17;13.80;69.40
72338;DHT22;60294;64.134;-21.862;2022-07-05T09:43:43;13.80;68.80
72338;DHT22;60294;64.134;-21.862;2022-07-05T09:46:09;13.90;69.10
72338;DHT22;60294;64.134;-21.862;2022-07-05T09:48:35;14.00;68.30
72338;DHT22;60294;64.134;-21.862;2022-07-05T09:51:19;13.90;68.00
72338;DHT22;60294;64.134;-21.862;2022-07-05T09:53:49;13.80;68.00
72338;DHT22;60294;64.134;-21.862;2022-07-05T09:56:15;13.90;68.30
72338;DHT22;60294;64.134;-21.862;2022-07-05T09:58:42;14.00;68.00
72338;DHT22;60294;64.134;-21.862;2022-07-05T10:03:58;14.00;66.40
72338;DHT22;60294;64.134;-21.862;2022-07-05T10:06:27;14.10;66.50
72338;DHT22;60294;64.134;-21.862;2022-07-05T10:08:53;14.10;65.80
72338;DHT22;60294;64.134;-21.862;2022-07-05T10:11:23;14.10;65.20
72338;DHT22;60294;64.134;-21.862;2022-07-05T10:13:55;14.10;64.90
72338;DHT22;60294;64.134;-21.862;2022-07-05T10:16:22;14.10;64.30
72338;DHT22;60294;64.134;-21.862;2022-07-05T10:18:54;14.40;63.80
72338;DHT22;60294;64.134;-21.862;2022-07-05T10:21:20;14.50;62.90
72338;DHT22;60294;64.134;-21.862;2022-07-05T10:23:50;14.50;62.80
72338;DHT22;60294;64.134;-21.862;2022-07-05T10:26:22;14.60;62.70
72338;DHT22;60294;64.134;-21.862;2022-07-05T10:28:51;14.60;62.60
72338;DHT22;60294;64.134;-21.862;2022-07-05T10:31:17;14.60;62.40
72338;DHT22;60294;64.134;-21.862;2022-07-05T10:33:45;14.70;62.00
72338;DHT22;60294;64.134;-21.862;2022-07-05T10:36:12;14.80;62.30
72338;DHT22;60294;64.134;-21.862;2022-07-05T10:38:41;14.80;62.30
72338;DHT22;60294;64.134;-21.862;2022-07-05T10:41:10;15.00;62.80
72338;DHT22;60294;64.134;-21.862;2022-07-05T10:43:36;15.20;63.20
72338;DHT22;60294;64.134;-21.862;2022-07-05T10:46:02;15.40;64.00
72338;DHT22;60294;64.134;-21.862;2022-07-05T10:48:33;15.40;64.00
72338;DHT22;60294;64.134;-21.862;2022-07-05T10:58:41;16.00;62.20
72338;DHT22;60294;64.134;-21.862;2022-07-05T11:13:58;16.40;60.20
72338;DHT22;60294;64.134;-21.862;2022-07-05T11:16:28;16.50;59.90
72338;DHT22;60294;64.134;-21.862;2022-07-05T11:19:19;16.60;59.80
72338;DHT22;60294;64.134;-21.862;2022-07-05T11:22:06;16.40;60.00
72338;DHT22;60294;64.134;-21.862;2022-07-05T11:24:37;16.20;60.40
72338;DHT22;60294;64.134;-21.862;2022-07-05T11:27:09;16.20;60.10
72338;DHT22;60294;64.134;-21.862;2022-07-05T11:29:48;16.20;60.00
72338;DHT22;60294;64.134;-21.862;2022-07-05T11:32:19;16.40;60.50
72338;DHT22;60294;64.134;-21.862;2022-07-05T11:34:50;16.30;60.20
72338;DHT22;60294;64.134;-21.862;2022-07-05T11:37:17;16.40;60.00
72338;DHT22;60294;64.134;-21.862;2022-07-05T11:42:48;16.50;59.70
72338;DHT22;60294;64.134;-21.862;2022-07-05T11:45:14;16.60;59.80
72338;DHT22;60294;64.134;-21.862;2022-07-05T11:47:41;16.70;59.30
72338;DHT22;60294;64.134;-21.862;2022-07-05T11:50:08;16.50;59.50
72338;DHT22;60294;64.134;-21.862;2022-07-05T11:52:35;16.50;59.60
72338;DHT22;60294;64.134;-21.862;2022-07-05T11:55:08;16.60;59.70
72338;DHT22;60294;64.134;-21.862;2022-07-05T11:57:34;16.60;59.40
72338;DHT22;60294;64.134;-21.862;2022-07-05T12:00:00;16.60;60.10
72338;DHT22;60294;64.134;-21.862;2022-07-05T12:02:26;16.60;59.10
72338;DHT22;60294;64.134;-21.862;2022-07-05T12:04:54;16.60;59.30
72338;DHT22;60294;64.134;-21.862;2022-07-05T12:07:33;16.60;58.60
72338;DHT22;60294;64.134;-21.862;2022-07-05T12:10:01;16.70;59.30
72338;DHT22;60294;64.134;-21.862;2022-07-05T12:12:46;16.80;59.20
72338;DHT22;60294;64.134;-21.862;2022-07-05T12:15:20;16.60;59.00
72338;DHT22;60294;64.134;-21.862;2022-07-05T12:17:48;16.70;58.80
72338;DHT22;60294;64.134;-21.862;2022-07-05T12:20:23;16.80;58.70
72338;DHT22;60294;64.134;-21.862;2022-07-05T12:22:49;16.80;59.60
72338;DHT22;60294;64.134;-21.862;2022-07-05T12:25:18;16.90;59.60
72338;DHT22;60294;64.134;-21.862;2022-07-05T12:27:46;16.90;59.50
72338;DHT22;60294;64.134;-21.862;2022-07-05T12:30:14;16.90;59.50
72338;DHT22;60294;64.134;-21.862;2022-07-05T12:33:08;17.00;59.70
72338;DHT22;60294;64.134;-21.862;2022-07-05T12:35:45;17.10;59.30
72338;DHT22;60294;64.134;-21.862;2022-07-05T12:38:19;17.00;59.30
72338;DHT22;60294;64.134;-21.862;2022-07-05T12:41:03;17.10;58.80
72338;DHT22;60294;64.134;-21.862;2022-07-05T12:43:29;17.30;58.80
72338;DHT22;60294;64.134;-21.862;2022-07-05T12:46:06;17.40;57.60
72338;DHT22;60294;64.134;-21.862;2022-07-05T12:48:38;17.40;57.60
72338;DHT22;60294;64.134;-21.862;2022-07-05T12:51:08;17.50;57.80
72338;DHT22;60294;64.134;-21.862;2022-07-05T12:53:34;17.60;57.10
72338;DHT22;60294;64.134;-21.862;2022-07-05T12:56:27;17.60;56.60
72338;DHT22;60294;64.134;-21.862;2022-07-05T12:59:11;17.70;56.80
72338;DHT22;60294;64.134;-21.862;2022-07-05T13:01:42;17.90;57.00
72338;DHT22;60294;64.134;-21.862;2022-07-05T13:04:10;17.70;56.10
72338;DHT22;60294;64.134;-21.862;2022-07-05T13:14:39;18.10;55.00
72338;DHT22;60294;64.134;-21.862;2022-07-05T13:17:06;18.20;55.30
72338;DHT22;60294;64.134;-21.862;2022-07-05T13:19:32;18.10;54.50
72338;DHT22;60294;64.134;-21.862;2022-07-05T13:21:58;18.10;54.80
72338;DHT22;60294;64.134;-21.862;2022-07-05T13:24:24;18.30;54.70
72338;DHT22;60294;64.134;-21.862;2022-07-05T13:26:50;18.40;54.30
72338;DHT22;60294;64.134;-21.862;2022-07-05T13:29:16;18.50;54.50
72338;DHT22;60294;64.134;-21.862;2022-07-05T13:31:42;18.60;54.00
72338;DHT22;60294;64.134;-21.862;2022-07-05T13:34:08;18.90;53.60
72338;DHT22;60294;64.134;-21.862;2022-07-05T13:36:34;19.20;52.80
72338;DHT22;60294;64.134;-21.862;2022-07-05T13:39:00;19.40;51.70
72338;DHT22;60294;64.134;-21.862;2022-07-05T13:41:25;19.60;51.60
72338;DHT22;60294;64.134;-21.862;2022-07-05T13:43:52;19.80;51.00
72338;DHT22;60294;64.134;-21.862;2022-07-05T13:46:18;20.10;50.20
72338;DHT22;60294;64.134;-21.862;2022-07-05T13:48:44;20.40;49.80
72338;DHT22;60294;64.134;-21.862;2022-07-05T13:51:10;20.70;48.80
72338;DHT22;60294;64.134;-21.862;2022-07-05T13:53:36;20.90;48.60
72338;DHT22;60294;64.134;-21.862;2022-07-05T13:56:05;21.50;47.60
72338;DHT22;60294;64.134;-21.862;2022-07-05T13:58:32;21.30;47.40
72338;DHT22;60294;64.134;-21.862;2022-07-05T14:00:58;21.20;47.20
72338;DHT22;60294;64.134;-21.862;2022-07-05T14:03:25;21.30;47.00
72338;DHT22;60294;64.134;-21.862;2022-07-05T14:05:51;21.20;47.10
72338;DHT22;60294;64.134;-21.862;2022-07-05T14:08:17;21.10;46.70
72338;DHT22;60294;64.134;-21.862;2022-07-05T14:11:05;20.80;47.70
72338;DHT22;60294;64.134;-21.862;2022-07-05T14:13:35;20.60;48.30
72338;DHT22;60294;64.134;-21.862;2022-07-05T14:16:01;20.60;48.50
72338;DHT22;60294;64.134;-21.862;2022-07-05T14:18:26;20.40;49.10
72338;DHT22;60294;64.134;-21.862;2022-07-05T14:20:52;20.30;49.30
72338;DHT22;60294;64.134;-21.862;2022-07-05T14:23:18;20.10;50.00
72338;DHT22;60294;64.134;-21.862;2022-07-05T14:25:44;19.90;50.40
72338;DHT22;60294;64.134;-21.862;2022-07-05T14:28:11;19.70;50.80
72338;DHT22;60294;64.134;-21.862;2022-07-05T14:30:39;19.40;51.10
72338;DHT22;60294;64.134;-21.862;2022-07-05T14:33:05;19.50;51.40
72338;DHT22;60294;64.134;-21.862;2022-07-05T14:35:32;19.10;52.40
72338;DHT22;60294;64.134;-21.862;2022-07-05T14:37:59;19.10;53.20
72338;DHT22;60294;64.134;-21.862;2022-07-05T14:40:25;18.80;53.20
72338;DHT22;60294;64.134;-21.862;2022-07-05T14:42:54;18.80;54.10
72338;DHT22;60294;64.134;-21.862;2022-07-05T14:45:21;18.70;54.00
72338;DHT22;60294;64.134;-21.862;2022-07-05T14:47:47;18.60;54.30
72338;DHT22;60294;64.134;-21.862;2022-07-05T14:50:13;18.50;54.70
72338;DHT22;60294;64.134;-21.862;2022-07-05T14:52:40;18.60;54.50
72338;DHT22;60294;64.134;-21.862;2022-07-05T14:55:07;18.60;54.80
72338;DHT22;60294;64.134;-21.862;2022-07-05T14:57:33;18.60;55.00
72338;DHT22;60294;64.134;-21.862;2022-07-05T14:59:59;18.30;55.10
72338;DHT22;60294;64.134;-21.862;2022-07-05T15:02:25;18.50;54.30
72338;DHT22;60294;64.134;-21.862;2022-07-05T15:04:50;18.10;55.00
72338;DHT22;60294;64.134;-21.862;2022-07-05T15:07:16;18.40;54.80
72338;DHT22;60294;64.134;-21.862;2022-07-05T15:09:42;18.40;54.90
72338;DHT22;60294;64.134;-21.862;2022-07-05T15:12:08;18.40;55.40
72338;DHT22;60294;64.134;-21.862;2022-07-05T15:14:34;18.20;55.50
72338;DHT22;60294;64.134;-21.862;2022-07-05T15:17:00;18.10;55.60
72338;DHT22;60294;64.134;-21.862;2022-07-05T15:19:26;18.10;55.70
72338;DHT22;60294;64.134;-21.862;2022-07-05T15:21:51;18.00;56.10
72338;DHT22;60294;64.134;-21.862;2022-07-05T15:24:17;18.10;56.20
72338;DHT22;60294;64.134;-21.862;2022-07-05T15:26:45;18.00;55.80
72338;DHT22;60294;64.134;-21.862;2022-07-05T15:29:11;18.10;55.90
72338;DHT22;60294;64.134;-21.862;2022-07-05T15:31:37;18.10;55.60
72338;DHT22;60294;64.134;-21.862;2022-07-05T15:34:04;18.10;55.70
72338;DHT22;60294;64.134;-21.862;2022-07-05T15:36:31;18.10;56.50
72338;DHT22;60294;64.134;-21.862;2022-07-05T15:38:58;18.20;56.90
72338;DHT22;60294;64.134;-21.862;2022-07-05T15:41:27;18.20;56.30
72338;DHT22;60294;64.134;-21.862;2022-07-05T15:43:53;18.30;56.80